YGFN

Details ICAO YGFN (GFN)
Name Grafton
Region Australia
Timezone Australia/Sydney (UTC+11.0)
Plans Departing 5
Arriving 8
Stats Elevation 110 ft / 34 m (AMSL)
Location -29.754771° 153.031156°
Runways 1
Magnetic Variation 11.700° E
Sunrise 2017-12-13 18:42:44 UTC / 2017-12-14 05:42:44 Local
Sunset 2017-12-14 08:44:48 UTC / 2017-12-14 19:44:48 Local
Advertisement - Login to hide

Runways

ID Width Length Bearing (true) Bearing (mag) Surface Threshold Offset Overrun Length
18 98 ft / 30 m 5,618 ft / 1,712 m 185.20° 173.50° Asphalt 0 ft / 0 m 0 ft / 0 m
36 98 ft / 30 m 5,618 ft / 1,712 m 5.20° 353.50° Asphalt 0 ft / 0 m 0 ft / 0 m

Map

Weather


0- 5 10 15 20 25 30 35+ Temperature / ° C

Clouds and Precipitation
Forecast for 2017-12-13 18:00 UTC. Updated 2 hours ago

Ground ~20,000 ft ~40,000 ft Winds

METAR

YGFN 131702Z AUTO 00000KT 5000 // NCD 16/15 Q1013

TAF

Not found

Frequencies

Unicom 122.40 MHz ACTIVATE LIGHTS ONLY MULT
Tower 122.60 MHz BRISBANE CNTR
Unicom 126.70 MHz GRAFTON MULT
Warning: Do not use this data for real-world aviation or navigation. No guarantee of current accuracy is given.